createdAt,value
2019-03-19T00:00:46.791Z,9.37
2019-03-19T00:03:14.050Z,10.50
2019-03-19T00:05:41.521Z,8.87
2019-03-19T00:08:08.795Z,12.90
2019-03-19T00:10:36.171Z,12.13
2019-03-19T00:13:03.576Z,9.77
2019-03-19T00:15:30.850Z,9.07
2019-03-19T00:17:58.091Z,12.90
2019-03-19T00:20:25.451Z,10.43
2019-03-19T00:22:53.042Z,9.70
2019-03-19T00:25:29.575Z,10.37
2019-03-19T00:27:49.501Z,10.97
2019-03-19T00:30:16.909Z,14.00
2019-03-19T00:32:44.297Z,14.27
2019-03-19T00:35:12.119Z,11.60
2019-03-19T00:37:39.296Z,13.07
2019-03-19T00:40:06.740Z,12.63
2019-03-19T00:42:34.119Z,10.73
2019-03-19T00:45:01.457Z,11.87
2019-03-19T00:47:28.868Z,12.87
2019-03-19T00:49:56.301Z,10.67
2019-03-19T00:52:23.440Z,9.90
2019-03-19T00:54:50.832Z,12.37
2019-03-19T00:57:18.067Z,11.67
2019-03-19T00:59:45.478Z,11.33
2019-03-19T01:02:12.899Z,9.53
2019-03-19T01:04:40.656Z,14.13
2019-03-19T01:07:08.313Z,12.73
2019-03-19T01:09:35.555Z,11.37
2019-03-19T01:12:02.776Z,11.77
2019-03-19T01:14:30.519Z,15.10
2019-03-19T01:16:57.912Z,12.77
2019-03-19T01:19:25.337Z,12.80
2019-03-19T01:21:52.998Z,10.37
2019-03-19T01:24:20.208Z,13.63
2019-03-19T01:26:47.521Z,9.93
2019-03-19T01:29:14.724Z,10.73
2019-03-19T01:31:41.988Z,12.80
2019-03-19T01:34:09.369Z,14.40
2019-03-19T01:36:36.625Z,11.00
2019-03-19T01:39:05.524Z,9.87
2019-03-19T01:41:32.867Z,12.07
2019-03-19T01:44:00.153Z,12.77
2019-03-19T01:46:27.489Z,13.40
2019-03-19T01:48:54.701Z,12.40
2019-03-19T01:51:21.843Z,11.20
2019-03-19T01:53:49.626Z,11.57
2019-03-19T01:56:16.966Z,9.90
2019-03-19T01:58:44.087Z,13.23
2019-03-19T02:01:11.469Z,13.40
2019-03-19T02:03:38.611Z,11.67
2019-03-19T02:06:05.984Z,11.73
2019-03-19T02:08:34.508Z,11.80
2019-03-19T02:11:02.225Z,12.87
2019-03-19T02:13:29.447Z,12.23
2019-03-19T02:15:56.857Z,13.67
2019-03-19T02:18:24.073Z,12.33
2019-03-19T02:20:51.293Z,9.13
2019-03-19T02:23:18.661Z,11.40
2019-03-19T02:25:46.305Z,12.30
2019-03-19T02:28:14.887Z,13.37
2019-03-19T02:30:42.138Z,11.47
2019-03-19T02:33:09.693Z,10.53
2019-03-19T02:35:37.221Z,13.50
2019-03-19T02:38:06.044Z,11.43
2019-03-19T02:40:33.395Z,10.80
2019-03-19T02:43:00.620Z,10.93
2019-03-19T02:45:28.317Z,11.87
2019-03-19T02:47:55.681Z,10.77
2019-03-19T02:50:23.100Z,11.63
2019-03-19T02:52:50.412Z,12.43
2019-03-19T02:55:17.708Z,10.10
2019-03-19T02:57:45.081Z,14.27
2019-03-19T03:00:12.714Z,10.23
2019-03-19T03:02:39.992Z,13.10
2019-03-19T03:05:08.477Z,10.57
2019-03-19T03:07:35.887Z,12.70
2019-03-19T03:10:04.343Z,12.87
2019-03-19T03:12:31.625Z,13.70
2019-03-19T03:14:58.780Z,10.93
2019-03-19T03:17:27.193Z,14.37
2019-03-19T03:19:54.421Z,11.20
2019-03-19T03:22:21.856Z,12.53
2019-03-19T03:24:51.171Z,12.40
2019-03-19T03:27:18.865Z,14.13
2019-03-19T03:29:47.379Z,12.83
2019-03-19T03:32:14.723Z,11.87
2019-03-19T03:34:42.092Z,13.00
2019-03-19T03:37:09.603Z,14.03
2019-03-19T03:39:37.379Z,14.97
2019-03-19T03:42:04.625Z,10.83
2019-03-19T03:44:32.168Z,14.27
2019-03-19T03:46:59.162Z,11.23
2019-03-19T03:49:26.403Z,10.90
2019-03-19T03:51:53.748Z,14.73
2019-03-19T03:54:21.410Z,10.70
2019-03-19T03:57:01.180Z,12.23
2019-03-19T03:59:17.712Z,12.97
2019-03-19T04:01:45.050Z,11.47
2019-03-19T04:04:12.444Z,13.20
2019-03-19T04:06:40.952Z,11.97
2019-03-19T04:09:09.410Z,17.57
2019-03-19T04:11:37.193Z,11.43
2019-03-19T04:14:04.662Z,14.37
2019-03-19T04:16:32.039Z,10.50
2019-03-19T04:18:59.446Z,10.93
2019-03-19T04:21:26.831Z,12.30
2019-03-19T04:23:54.134Z,12.23
2019-03-19T04:26:21.498Z,13.73
2019-03-19T04:28:51.634Z,12.87
2019-03-19T04:31:18.974Z,13.23
2019-03-19T04:33:46.205Z,13.53
2019-03-19T04:36:13.530Z,16.00
2019-03-19T04:38:40.868Z,21.13
2019-03-19T04:41:08.239Z,16.10
2019-03-19T04:43:35.685Z,16.17
2019-03-19T04:46:03.072Z,16.23
2019-03-19T04:48:30.226Z,13.60
2019-03-19T04:50:57.619Z,15.20
2019-03-19T04:53:24.878Z,20.30
2019-03-19T04:55:52.702Z,14.53
2019-03-19T04:58:20.027Z,18.50
2019-03-19T05:00:47.421Z,14.40
2019-03-19T05:03:14.658Z,11.53
2019-03-19T05:05:41.994Z,13.13
2019-03-19T05:08:09.432Z,10.70
2019-03-19T05:10:36.667Z,10.63
2019-03-19T05:13:03.965Z,13.83
2019-03-19T05:15:31.677Z,11.33
2019-03-19T05:17:59.106Z,14.03
2019-03-19T05:20:26.481Z,11.50
2019-03-19T05:22:53.709Z,10.97
2019-03-19T05:25:21.096Z,10.90
2019-03-19T05:27:48.357Z,14.60
2019-03-19T05:30:15.786Z,12.60
2019-03-19T05:32:43.149Z,16.67
2019-03-19T05:35:10.546Z,15.67
2019-03-19T05:37:38.154Z,13.60
2019-03-19T05:40:05.623Z,11.23
2019-03-19T05:42:33.113Z,11.57
2019-03-19T05:45:00.331Z,12.17
2019-03-19T05:47:36.755Z,14.13
2019-03-19T05:49:57.103Z,12.67
2019-03-19T05:52:24.306Z,13.30
2019-03-19T05:54:51.751Z,13.27
2019-03-19T05:57:18.940Z,12.70
2019-03-19T05:59:46.185Z,11.93
2019-03-19T06:02:13.427Z,14.63
2019-03-19T06:04:40.701Z,15.10
2019-03-19T06:07:08.002Z,14.03
2019-03-19T06:09:35.236Z,15.73
2019-03-19T06:12:02.634Z,10.23
2019-03-19T06:14:30.011Z,11.80
2019-03-19T06:16:57.005Z,11.70
2019-03-19T06:19:24.169Z,11.60
2019-03-19T06:21:51.581Z,11.30
2019-03-19T06:24:19.905Z,12.73
2019-03-19T06:26:47.311Z,14.13
2019-03-19T06:29:14.549Z,12.37
2019-03-19T06:31:41.963Z,10.93
2019-03-19T06:34:09.341Z,12.97
2019-03-19T06:36:36.966Z,12.43
2019-03-19T06:39:06.692Z,11.77
2019-03-19T06:41:34.135Z,15.87
2019-03-19T06:44:01.370Z,19.37
2019-03-19T06:46:28.619Z,15.40
2019-03-19T06:48:56.026Z,13.53
2019-03-19T06:51:23.614Z,14.63
2019-03-19T06:53:50.909Z,12.63
2019-03-19T06:56:18.150Z,10.87
2019-03-19T06:58:47.290Z,13.73
2019-03-19T07:01:14.565Z,13.47
2019-03-19T07:03:41.827Z,10.90
2019-03-19T07:06:09.401Z,15.90
2019-03-19T07:08:36.831Z,15.10
2019-03-19T07:11:04.415Z,16.57
2019-03-19T07:13:31.796Z,15.50
2019-03-19T07:15:59.066Z,15.33
2019-03-19T07:18:26.292Z,18.27
2019-03-19T07:20:53.709Z,16.63
2019-03-19T07:23:21.268Z,16.27
2019-03-19T07:25:48.517Z,13.57
2019-03-19T07:28:22.024Z,15.40
2019-03-19T07:30:45.188Z,17.67
2019-03-19T07:33:12.418Z,15.83
2019-03-19T07:35:39.816Z,14.33
2019-03-19T07:38:07.057Z,18.90
2019-03-19T07:40:34.706Z,13.17
2019-03-19T07:43:01.955Z,15.03
2019-03-19T07:45:29.452Z,15.87
2019-03-19T07:47:56.763Z,13.07
2019-03-19T07:50:24.429Z,11.60
2019-03-19T07:52:52.078Z,12.63
2019-03-19T07:55:19.319Z,12.03
2019-03-19T07:57:46.825Z,10.17
2019-03-19T08:00:14.636Z,11.57
2019-03-19T08:02:41.928Z,10.17
2019-03-19T08:05:09.342Z,10.83
2019-03-19T08:07:36.803Z,9.77
2019-03-19T08:10:05.168Z,13.27
2019-03-19T08:12:33.648Z,12.30
2019-03-19T08:15:01.197Z,13.80
2019-03-19T08:17:28.573Z,13.10
2019-03-19T08:19:57.343Z,14.03
2019-03-19T08:22:24.584Z,18.43
2019-03-19T08:24:51.958Z,14.37
2019-03-19T08:27:19.284Z,12.93
2019-03-19T08:29:46.879Z,12.77
2019-03-19T08:32:14.065Z,14.13
2019-03-19T08:34:41.528Z,17.83
2019-03-19T08:37:09.324Z,12.43
2019-03-19T08:39:36.709Z,10.83
2019-03-19T08:42:04.184Z,14.03
2019-03-19T08:44:31.551Z,15.07
2019-03-19T08:46:58.817Z,11.93
2019-03-19T08:49:25.969Z,12.17
2019-03-19T08:51:53.336Z,13.63
2019-03-19T08:54:20.717Z,16.60
2019-03-19T08:56:48.115Z,12.70
2019-03-19T08:59:15.402Z,14.37
2019-03-19T09:01:42.830Z,15.50
2019-03-19T09:04:10.320Z,15.57
2019-03-19T09:06:39.778Z,20.17
2019-03-19T09:09:08.347Z,12.80
2019-03-19T09:11:37.773Z,15.17
2019-03-19T09:14:06.225Z,21.33
2019-03-19T09:16:33.634Z,14.03
2019-03-19T09:19:01.026Z,11.93
2019-03-19T09:21:28.459Z,10.80
2019-03-19T09:23:55.691Z,10.13
2019-03-19T09:26:24.048Z,13.53
2019-03-19T09:28:51.529Z,14.63
2019-03-19T09:31:18.780Z,12.53
2019-03-19T09:33:46.031Z,11.37
2019-03-19T09:36:13.399Z,9.70
2019-03-19T09:38:40.466Z,12.43
2019-03-19T09:41:07.865Z,9.10
2019-03-19T09:43:35.105Z,10.33
2019-03-19T09:46:02.514Z,10.40
2019-03-19T09:48:29.744Z,8.43
2019-03-19T09:50:57.029Z,9.00
2019-03-19T09:53:24.672Z,8.07
2019-03-19T09:55:51.951Z,10.60
2019-03-19T09:58:19.680Z,10.00
2019-03-19T10:00:47.115Z,10.70
2019-03-19T10:03:14.321Z,11.83
2019-03-19T10:05:41.891Z,8.40
2019-03-19T10:08:12.681Z,10.60
2019-03-19T10:10:40.007Z,10.27
2019-03-19T10:13:08.093Z,12.20
2019-03-19T10:15:35.462Z,10.83
2019-03-19T10:18:02.983Z,16.17
2019-03-19T10:20:30.447Z,12.07
2019-03-19T10:23:00.150Z,9.87
2019-03-19T10:25:27.743Z,6.97
2019-03-19T10:27:55.083Z,12.30
2019-03-19T10:30:22.643Z,7.63
2019-03-19T10:32:50.081Z,9.90
2019-03-19T10:35:18.597Z,10.37
2019-03-19T10:37:46.071Z,8.80
2019-03-19T10:40:13.693Z,8.43
2019-03-19T10:42:41.157Z,9.80
2019-03-19T10:45:09.638Z,8.20
2019-03-19T10:47:37.183Z,7.23
2019-03-19T10:50:07.274Z,6.70
2019-03-19T10:52:34.378Z,7.33
2019-03-19T10:55:01.762Z,7.67
2019-03-19T10:57:29.087Z,8.77
2019-03-19T11:00:04.623Z,7.57
2019-03-19T11:02:33.724Z,7.73
2019-03-19T11:05:01.987Z,8.10
2019-03-19T11:07:29.568Z,8.60
2019-03-19T11:09:58.086Z,6.90
2019-03-19T11:12:25.500Z,7.83
2019-03-19T11:14:52.753Z,8.93
2019-03-19T11:17:20.167Z,7.50
2019-03-19T11:19:47.312Z,10.50
2019-03-19T11:22:14.645Z,6.57
2019-03-19T11:24:41.946Z,8.23
2019-03-19T11:27:09.164Z,6.93
2019-03-19T11:29:36.651Z,6.93
2019-03-19T11:32:04.215Z,9.07
2019-03-19T11:34:31.532Z,8.13
2019-03-19T11:37:00.345Z,6.13
2019-03-19T11:39:27.604Z,6.97
2019-03-19T11:41:54.847Z,8.03
2019-03-19T11:44:22.837Z,7.67
2019-03-19T11:46:50.451Z,4.93
2019-03-19T11:49:18.961Z,5.93
2019-03-19T11:51:46.621Z,6.53
2019-03-19T11:54:13.881Z,6.70
2019-03-19T11:56:41.279Z,7.83
2019-03-19T11:59:09.788Z,11.67
2019-03-19T12:01:37.157Z,7.30
2019-03-19T12:04:04.879Z,5.57
2019-03-19T12:06:32.127Z,6.30
2019-03-19T12:09:01.041Z,6.63
2019-03-19T12:11:30.654Z,8.97
2019-03-19T12:13:57.975Z,6.50
2019-03-19T12:16:25.290Z,9.40
2019-03-19T12:18:53.081Z,7.43
2019-03-19T12:21:20.453Z,10.83
2019-03-19T12:23:48.058Z,6.47
2019-03-19T12:26:15.295Z,7.77
2019-03-19T12:28:42.603Z,8.50
2019-03-19T12:31:09.866Z,6.43
2019-03-19T12:33:41.152Z,5.30
2019-03-19T12:36:06.586Z,5.40
2019-03-19T12:38:34.089Z,4.70
2019-03-19T12:41:01.376Z,6.70
2019-03-19T12:43:31.482Z,5.57
2019-03-19T12:45:59.152Z,6.70
2019-03-19T12:48:26.529Z,6.20
2019-03-19T12:50:53.815Z,5.80
2019-03-19T12:53:21.348Z,6.77
2019-03-19T12:55:48.743Z,6.00
2019-03-19T12:58:16.114Z,6.23
2019-03-19T13:00:43.764Z,6.40
2019-03-19T13:03:11.025Z,8.00
2019-03-19T13:05:38.351Z,4.30
2019-03-19T13:08:05.611Z,5.20
2019-03-19T13:10:33.039Z,5.00
2019-03-19T13:13:00.450Z,10.87
2019-03-19T13:15:28.889Z,9.20
2019-03-19T13:17:57.362Z,6.63
2019-03-19T13:20:24.875Z,9.47
2019-03-19T13:22:53.552Z,8.83
2019-03-19T13:25:21.323Z,11.37
2019-03-19T13:27:48.677Z,6.70
2019-03-19T13:30:17.289Z,8.20
2019-03-19T13:32:44.619Z,8.50
2019-03-19T13:35:12.065Z,8.47
2019-03-19T13:37:39.414Z,7.90
2019-03-19T13:40:07.689Z,8.83
2019-03-19T13:42:35.187Z,12.37
2019-03-19T13:45:02.881Z,10.17
2019-03-19T13:47:30.368Z,8.13
2019-03-19T13:49:58.120Z,12.67
2019-03-19T13:52:25.486Z,9.57
2019-03-19T13:54:52.841Z,13.27
2019-03-19T13:57:20.119Z,11.53
2019-03-19T13:59:49.128Z,11.77
2019-03-19T14:02:16.648Z,8.37
2019-03-19T14:04:46.943Z,10.57
2019-03-19T14:07:14.332Z,7.17
2019-03-19T14:09:42.229Z,7.93
2019-03-19T14:12:09.609Z,10.77
2019-03-19T14:14:37.035Z,10.90
2019-03-19T14:17:06.547Z,7.17
2019-03-19T14:19:34.937Z,6.20
2019-03-19T14:22:02.403Z,7.87
2019-03-19T14:24:29.944Z,12.60
2019-03-19T14:26:57.254Z,10.07
2019-03-19T14:29:25.009Z,10.80
2019-03-19T14:31:52.503Z,10.33
2019-03-19T14:34:19.869Z,7.40
2019-03-19T14:36:47.364Z,7.53
2019-03-19T14:39:15.008Z,7.30
2019-03-19T14:41:42.841Z,6.77
2019-03-19T14:44:11.014Z,9.00
2019-03-19T14:46:38.512Z,3.63
2019-03-19T14:49:06.256Z,5.07
2019-03-19T14:51:33.586Z,7.33
2019-03-19T14:54:01.115Z,6.73
2019-03-19T14:56:29.777Z,7.77
2019-03-19T14:58:57.203Z,11.47
2019-03-19T15:01:24.801Z,7.53
2019-03-19T15:03:53.879Z,10.63
2019-03-19T15:06:22.048Z,7.07
2019-03-19T15:08:49.395Z,5.93
2019-03-19T15:11:16.626Z,8.50
2019-03-19T15:13:45.215Z,8.73
2019-03-19T15:16:12.916Z,8.50
2019-03-19T15:18:40.530Z,15.47
2019-03-19T15:21:09.003Z,8.60
2019-03-19T15:23:36.335Z,21.67
2019-03-19T15:26:03.672Z,6.50
2019-03-19T15:28:31.471Z,7.13
2019-03-19T15:30:59.741Z,13.87
2019-03-19T15:33:27.011Z,8.00
2019-03-19T15:35:54.496Z,9.00
2019-03-19T15:38:21.833Z,10.60
2019-03-19T15:40:49.180Z,12.00
2019-03-19T15:43:16.477Z,6.83
2019-03-19T15:45:43.933Z,6.13
2019-03-19T15:48:11.511Z,5.20
2019-03-19T15:50:40.444Z,6.10
2019-03-19T15:53:07.933Z,7.50
2019-03-19T15:55:35.350Z,11.73
2019-03-19T15:58:02.782Z,5.30
2019-03-19T16:00:30.402Z,9.53
2019-03-19T16:02:57.736Z,10.23
2019-03-19T16:05:25.093Z,3.80
2019-03-19T16:07:52.773Z,10.63
2019-03-19T16:10:19.985Z,7.60
2019-03-19T16:12:47.688Z,9.60
2019-03-19T16:15:15.219Z,8.73
2019-03-19T16:17:43.182Z,6.27
2019-03-19T16:20:12.178Z,7.47
2019-03-19T16:22:39.418Z,5.77
2019-03-19T16:25:06.759Z,6.60
2019-03-19T16:27:34.474Z,9.27
2019-03-19T16:30:02.107Z,8.43
2019-03-19T16:32:30.839Z,6.40
2019-03-19T16:34:58.209Z,7.77
2019-03-19T16:37:25.179Z,11.33
2019-03-19T16:39:52.415Z,7.23
2019-03-19T16:42:19.661Z,7.80
2019-03-19T16:44:46.950Z,6.27
2019-03-19T16:47:14.256Z,6.00
2019-03-19T16:49:41.936Z,5.00
2019-03-19T16:52:09.272Z,6.80
2019-03-19T16:54:36.843Z,6.63
2019-03-19T16:57:04.303Z,7.47
2019-03-19T16:59:31.710Z,5.47
2019-03-19T17:02:01.780Z,7.57
2019-03-19T17:04:28.509Z,4.93
2019-03-19T17:06:55.612Z,6.57
2019-03-19T17:09:24.108Z,7.37
2019-03-19T17:11:51.620Z,7.97
2019-03-19T17:14:18.710Z,6.87
2019-03-19T17:16:46.016Z,7.63
2019-03-19T17:19:13.516Z,6.23
2019-03-19T17:21:41.159Z,8.57
2019-03-19T17:24:08.441Z,6.20
2019-03-19T17:26:36.025Z,5.07
2019-03-19T17:29:03.237Z,10.23
2019-03-19T17:31:31.541Z,4.47
2019-03-19T17:33:59.053Z,5.23
2019-03-19T17:36:26.313Z,5.50
2019-03-19T17:38:53.645Z,7.97
2019-03-19T17:41:20.841Z,6.13
2019-03-19T17:43:47.944Z,11.17
2019-03-19T17:46:15.307Z,5.43
2019-03-19T17:48:42.628Z,7.03
2019-03-19T17:51:09.877Z,6.97
2019-03-19T17:53:37.012Z,6.20
2019-03-19T17:56:04.953Z,6.60
2019-03-19T17:58:32.193Z,10.10
2019-03-19T18:00:59.374Z,10.83
2019-03-19T18:03:26.986Z,9.60
2019-03-19T18:05:54.533Z,11.97
2019-03-19T18:08:21.985Z,6.67
2019-03-19T18:10:49.287Z,12.80
2019-03-19T18:13:16.652Z,12.07
2019-03-19T18:15:45.882Z,16.17
2019-03-19T18:18:14.039Z,11.40
2019-03-19T18:20:41.632Z,14.10
2019-03-19T18:23:09.485Z,11.50
2019-03-19T18:25:37.422Z,6.87
2019-03-19T18:28:04.961Z,10.57
2019-03-19T18:30:32.402Z,8.27
2019-03-19T18:32:59.960Z,18.33
2019-03-19T18:35:27.609Z,9.37
2019-03-19T18:37:55.652Z,12.87
2019-03-19T18:40:25.777Z,9.47
2019-03-19T18:42:53.389Z,13.40
2019-03-19T18:45:25.351Z,17.23
2019-03-19T18:47:54.634Z,11.87
2019-03-19T18:50:22.387Z,7.80
2019-03-19T18:52:50.202Z,8.77
2019-03-19T18:55:17.712Z,8.70
2019-03-19T18:57:45.549Z,8.37
2019-03-19T19:00:15.352Z,12.80
2019-03-19T19:02:49.781Z,8.37
2019-03-19T19:05:14.552Z,10.10
2019-03-19T19:07:42.638Z,10.63
2019-03-19T19:10:10.979Z,12.90
2019-03-19T19:12:38.696Z,15.53
2019-03-19T19:15:07.709Z,14.47
2019-03-19T19:17:36.359Z,13.67
2019-03-19T19:20:05.941Z,13.87
2019-03-19T19:22:33.466Z,11.53
2019-03-19T19:25:01.947Z,10.77
2019-03-19T19:27:29.501Z,10.10
2019-03-19T19:29:58.134Z,14.67
2019-03-19T19:32:26.881Z,17.03
2019-03-19T19:34:54.977Z,13.07
2019-03-19T19:37:23.299Z,15.53
2019-03-19T19:39:51.997Z,15.90
2019-03-19T19:42:19.450Z,18.13
2019-03-19T19:44:48.024Z,13.80
2019-03-19T19:47:16.536Z,12.97
2019-03-19T19:49:44.591Z,13.90
2019-03-19T19:52:12.093Z,12.43
2019-03-19T19:54:39.807Z,19.63
2019-03-19T19:57:07.558Z,13.47
2019-03-19T19:59:36.581Z,12.87
2019-03-19T20:02:05.143Z,18.17
2019-03-19T20:04:32.877Z,12.43
2019-03-19T20:07:00.653Z,15.50
2019-03-19T20:09:28.510Z,13.43
2019-03-19T20:11:56.031Z,13.63
2019-03-19T20:14:24.487Z,18.30
2019-03-19T20:16:53.167Z,9.20
2019-03-19T20:19:22.200Z,12.87
2019-03-19T20:21:49.833Z,15.87
2019-03-19T20:24:18.545Z,16.43
2019-03-19T20:26:47.623Z,12.83
2019-03-19T20:29:15.004Z,8.83
2019-03-19T20:31:44.078Z,11.23
2019-03-19T20:34:11.433Z,12.07
2019-03-19T20:36:38.854Z,9.97
2019-03-19T20:39:07.600Z,9.77
2019-03-19T20:41:35.327Z,11.27
2019-03-19T20:44:03.940Z,10.13
2019-03-19T20:46:32.843Z,8.17
2019-03-19T20:49:02.198Z,14.37
2019-03-19T20:51:29.833Z,9.47
2019-03-19T20:53:57.604Z,14.53
2019-03-19T20:56:25.819Z,14.53
2019-03-19T20:58:54.237Z,10.83
2019-03-19T21:01:23.281Z,16.33
2019-03-19T21:03:51.155Z,12.27
2019-03-19T21:06:19.641Z,12.13
2019-03-19T21:08:47.114Z,12.10
2019-03-19T21:11:15.654Z,11.27
2019-03-19T21:13:45.198Z,9.13
2019-03-19T21:16:13.308Z,8.33
2019-03-19T21:18:43.215Z,9.00
2019-03-19T21:21:12.195Z,8.33
2019-03-19T21:23:40.813Z,10.07
2019-03-19T21:26:08.154Z,10.93
2019-03-19T21:28:36.507Z,11.53
2019-03-19T21:31:06.178Z,9.50
2019-03-19T21:33:34.361Z,18.20
2019-03-19T21:36:03.893Z,13.17
2019-03-19T21:38:31.486Z,13.40
2019-03-19T21:40:58.977Z,11.87
2019-03-19T21:43:28.172Z,10.03
2019-03-19T21:45:55.715Z,12.53
2019-03-19T21:48:23.474Z,15.70
2019-03-19T21:50:52.033Z,14.00
2019-03-19T21:53:19.541Z,11.20
2019-03-19T21:55:47.140Z,12.43
2019-03-19T21:58:16.025Z,11.33
2019-03-19T22:00:44.063Z,15.70
2019-03-19T22:03:11.496Z,9.53
2019-03-19T22:05:39.184Z,16.67
2019-03-19T22:08:06.883Z,17.47
2019-03-19T22:10:35.710Z,15.10
2019-03-19T22:13:04.073Z,13.13
2019-03-19T22:15:31.715Z,12.80
2019-03-19T22:17:59.781Z,8.43
2019-03-19T22:20:27.152Z,17.10
2019-03-19T22:22:54.963Z,19.20
2019-03-19T22:25:22.449Z,16.40
2019-03-19T22:27:50.352Z,13.93
2019-03-19T22:30:17.836Z,11.00
2019-03-19T22:32:45.391Z,15.63
2019-03-19T22:35:13.101Z,15.60
2019-03-19T22:37:40.939Z,10.97
2019-03-19T22:40:09.587Z,10.53
2019-03-19T22:42:37.276Z,8.57
2019-03-19T22:45:06.037Z,16.30
2019-03-19T22:47:33.410Z,8.33
2019-03-19T22:50:00.717Z,13.17
2019-03-19T22:52:28.251Z,9.57
2019-03-19T22:54:55.645Z,7.90
2019-03-19T22:57:23.339Z,11.97
2019-03-19T22:59:50.757Z,11.10
2019-03-19T23:02:18.709Z,11.67
2019-03-19T23:04:46.697Z,11.87
2019-03-19T23:07:14.131Z,13.00
2019-03-19T23:09:41.793Z,13.80
2019-03-19T23:12:09.228Z,15.07
2019-03-19T23:14:36.597Z,10.80
2019-03-19T23:17:11.197Z,17.20
2019-03-19T23:19:38.691Z,14.40
2019-03-19T23:22:06.289Z,14.17
2019-03-19T23:24:33.745Z,17.90
2019-03-19T23:27:01.258Z,17.80
2019-03-19T23:29:28.708Z,22.47
2019-03-19T23:31:56.349Z,12.83
2019-03-19T23:34:23.839Z,13.03
2019-03-19T23:36:51.220Z,9.77
2019-03-19T23:39:18.762Z,11.30
2019-03-19T23:41:46.259Z,11.17
2019-03-19T23:44:14.837Z,8.90
2019-03-19T23:46:42.466Z,8.57
2019-03-19T23:49:09.799Z,8.43
2019-03-19T23:51:37.611Z,9.20
2019-03-19T23:54:05.107Z,14.40
2019-03-19T23:56:32.630Z,8.30
2019-03-19T23:58:59.985Z,8.43
